Time;durP1;ratioP1;P1;durP2;ratioP2;P2;SDS_P1;SDS_P2;PMS_P1;PMS_P2;Temp;Humidity;BMP_temperature;BMP_pressure;BME280_temperature;BME280_humidity;BME280_pressure;Samples;Min_cycle;Max_cycle;Signal;HPM_P1;HPM_P2
2021/12/07 00:00:16;;;;;;;25.70;18.23;;;3.60;92.50;;;;;;5072329;28;20453;-63
2021/12/07 00:02:42;;;;;;;24.23;16.90;;;3.50;92.60;;;;;;5071631;28;20048;-63
2021/12/07 00:05:08;;;;;;;25.10;16.92;;;3.50;92.70;;;;;;5072261;28;20085;-64
2021/12/07 00:07:34;;;;;;;23.30;16.67;;;3.60;92.60;;;;;;5071631;28;20078;-64
2021/12/07 00:10:00;;;;;;;24.00;17.00;;;3.60;92.20;;;;;;5072224;28;20467;-63
2021/12/07 00:12:33;;;;;;;24.45;16.90;;;3.50;91.60;;;;;;5072177;28;20027;-63
2021/12/07 00:15:02;;;;;;;23.75;16.75;;;3.50;91.30;;;;;;5072315;28;20111;-63
2021/12/07 00:17:29;;;;;;;23.88;16.92;;;3.50;91.40;;;;;;5072182;28;20021;-63
2021/12/07 00:19:54;;;;;;;22.00;16.02;;;3.50;91.20;;;;;;5071157;28;20082;-63
2021/12/07 00:22:20;;;;;;;25.70;17.45;;;3.50;90.90;;;;;;5072078;28;20029;-63
2021/12/07 00:24:45;;;;;;;24.40;17.63;;;3.50;90.60;;;;;;5070902;28;20094;-65
2021/12/07 00:27:11;;;;;;;22.65;16.27;;;3.40;90.50;;;;;;5071170;28;20024;-63
2021/12/07 00:29:39;;;;;;;22.80;16.58;;;3.40;90.60;;;;;;5071189;28;20457;-63
2021/12/07 00:37:26;;;;;;;23.38;16.98;;;3.40;90.30;;;;;;5071933;28;20082;-63
2021/12/07 00:39:53;;;;;;;24.88;16.42;;;3.40;90.40;;;;;;5070959;28;20546;-63
2021/12/07 00:42:20;;;;;;;21.90;16.80;;;3.40;90.30;;;;;;5071921;28;20024;-63
2021/12/07 00:44:46;;;;;;;26.02;17.80;;;3.30;90.20;;;;;;5071218;28;20029;-63
2021/12/07 00:47:12;;;;;;;27.70;17.92;;;3.40;90.10;;;;;;5070410;28;20139;-63
2021/12/07 00:49:37;;;;;;;24.30;17.45;;;3.40;90.30;;;;;;5070895;28;20036;-64
2021/12/07 00:52:04;;;;;;;23.27;16.77;;;3.40;90.30;;;;;;5072078;28;20142;-64
2021/12/07 00:54:31;;;;;;;25.65;16.77;;;3.30;90.20;;;;;;5072031;28;20472;-63
2021/12/07 00:56:57;;;;;;;21.95;16.20;;;3.30;90.20;;;;;;5071116;28;20032;-63
2021/12/07 00:59:22;;;;;;;23.13;16.42;;;3.30;90.30;;;;;;5071398;28;20539;-63
2021/12/07 01:01:48;;;;;;;23.88;16.88;;;3.30;90.30;;;;;;5071112;28;20059;-64
2021/12/07 01:09:35;;;;;;;24.33;15.90;;;3.30;90.00;;;;;;5071612;28;20028;-63
2021/12/07 01:25:52;;;;;;;24.95;16.77;;;3.30;89.30;;;;;;5070907;28;20034;-63
2021/12/07 01:28:36;;;;;;;24.73;17.60;;;3.30;89.60;;;;;;5071406;28;20392;-62
2021/12/07 01:59:54;;;;;;;25.58;17.83;;;3.20;90.20;;;;;;5073553;28;20032;-64
2021/12/07 02:02:24;;;;;;;27.90;19.45;;;3.20;90.40;;;;;;5074122;28;20446;-64
2021/12/07 02:04:50;;;;;;;25.80;19.00;;;3.20;90.30;;;;;;5073769;28;20085;-64
2021/12/07 02:07:16;;;;;;;26.30;18.25;;;3.20;90.30;;;;;;5088373;28;20114;-64
2021/12/07 02:09:46;;;;;;;28.42;18.73;;;3.20;90.30;;;;;;5094421;28;20028;-64
2021/12/07 02:12:13;;;;;;;28.67;19.27;;;3.20;90.60;;;;;;5094566;28;20468;-63
2021/12/07 02:14:40;;;;;;;27.58;18.60;;;3.20;90.50;;;;;;5094394;28;20032;-63
2021/12/07 02:17:13;;;;;;;26.50;18.95;;;3.20;90.60;;;;;;5093635;28;20024;-64
2021/12/07 02:19:39;;;;;;;26.35;18.15;;;3.20;90.80;;;;;;5094278;28;20024;-63
2021/12/07 02:22:05;;;;;;;29.52;20.08;;;3.20;91.00;;;;;;5093620;28;20028;-63
2021/12/07 02:24:31;;;;;;;25.92;19.05;;;3.20;90.80;;;;;;5094099;28;20059;-63
2021/12/07 02:26:57;;;;;;;27.20;19.48;;;3.20;90.80;;;;;;5093549;28;20092;-64
2021/12/07 02:29:25;;;;;;;26.13;18.60;;;3.20;91.00;;;;;;5092876;28;20384;-64
2021/12/07 02:31:52;;;;;;;28.65;19.63;;;3.20;91.10;;;;;;5093445;28;20042;-64
2021/12/07 02:34:20;;;;;;;29.98;20.55;;;3.20;91.00;;;;;;5093733;28;20099;-64
2021/12/07 02:36:47;;;;;;;26.50;18.10;;;3.20;91.00;;;;;;5093384;28;20022;-64
2021/12/07 02:39:13;;;;;;;29.35;20.02;;;3.20;91.00;;;;;;5093629;28;20456;-63
2021/12/07 02:41:40;;;;;;;29.10;20.10;;;3.20;91.00;;;;;;5093793;28;20028;-63
2021/12/07 02:44:07;;;;;;;29.33;19.35;;;3.30;90.90;;;;;;5093161;28;20102;-63
2021/12/07 02:46:37;;;;;;;29.05;18.55;;;3.30;90.50;;;;;;5093616;28;20047;-63
2021/12/07 02:49:08;;;;;;;29.05;19.48;;;3.20;90.60;;;;;;5091950;28;20034;-63
2021/12/07 02:51:34;;;;;;;29.60;19.20;;;3.20;90.50;;;;;;5092046;28;20028;-63
2021/12/07 02:54:00;;;;;;;28.98;19.98;;;3.20;90.60;;;;;;5092670;28;20035;-64
2021/12/07 02:56:26;;;;;;;27.75;19.42;;;3.20;90.50;;;;;;5093623;28;20052;-63
2021/12/07 02:58:57;;;;;;;27.70;19.50;;;3.20;90.50;;;;;;5092797;28;20035;-63
2021/12/07 03:01:28;;;;;;;;;;;3.20;90.30;;;;;;5093707;28;20035;-63
2021/12/07 03:06:40;;;;;;;28.58;19.17;;;3.20;90.30;;;;;;5093474;28;20031;-63
2021/12/07 03:25:58;;;;;;;27.52;20.27;;;3.20;91.20;;;;;;5092895;28;20105;-63
2021/12/07 03:28:24;;;;;;;30.77;19.38;;;3.20;91.00;;;;;;5092968;28;20030;-63
2021/12/07 03:30:50;;;;;;;27.48;18.27;;;3.20;90.90;;;;;;5092015;28;20439;-63
2021/12/07 03:33:16;;;;;;;27.73;19.65;;;3.20;90.80;;;;;;5092512;28;20409;-63
2021/12/07 03:35:42;;;;;;;29.27;19.52;;;3.20;90.70;;;;;;5092473;28;20052;-63
2021/12/07 03:38:09;;;;;;;28.80;19.45;;;3.20;90.60;;;;;;5091993;28;20115;-63
2021/12/07 03:40:36;;;;;;;28.13;19.05;;;3.20;90.50;;;;;;5092667;28;20028;-63
2021/12/07 03:43:04;;;;;;;27.50;19.27;;;3.20;90.40;;;;;;5090786;28;20357;-63
2021/12/07 03:45:31;;;;;;;34.25;21.90;;;3.20;90.40;;;;;;5091119;28;20048;-63
2021/12/07 03:47:57;;;;;;;30.58;20.88;;;3.20;90.50;;;;;;5092066;28;20084;-63
2021/12/07 03:50:23;;;;;;;28.50;20.52;;;3.20;90.50;;;;;;5092409;28;20027;-63
2021/12/07 03:52:50;;;;;;;27.13;19.08;;;3.20;90.60;;;;;;5092500;28;20430;-62
2021/12/07 03:55:16;;;;;;;35.05;21.63;;;3.20;90.50;;;;;;5092210;28;20024;-63
2021/12/07 03:57:42;;;;;;;32.72;21.60;;;3.20;90.40;;;;;;5092027;28;20027;-63
2021/12/07 04:00:14;;;;;;;31.88;20.27;;;3.20;90.40;;;;;;5072245;28;20025;-64
2021/12/07 04:02:41;;;;;;;31.08;20.75;;;3.20;90.60;;;;;;5072213;28;20294;-63
2021/12/07 04:05:12;;;;;;;29.92;19.83;;;3.20;90.60;;;;;;5071554;28;20133;-64
2021/12/07 04:07:38;;;;;;;30.10;21.00;;;3.20;90.40;;;;;;5072241;28;20032;-63
2021/12/07 04:10:06;;;;;;;31.63;20.80;;;3.20;90.40;;;;;;5070426;28;20120;-63
2021/12/07 04:12:32;;;;;;;29.98;19.65;;;3.20;90.50;;;;;;5071977;28;20029;-63
2021/12/07 04:14:58;;;;;;;30.98;20.55;;;3.20;90.50;;;;;;5071201;28;20488;-63
2021/12/07 04:17:23;;;;;;;30.13;20.73;;;3.20;90.40;;;;;;5072377;28;20028;-63
2021/12/07 04:19:49;;;;;;;32.20;21.20;;;3.20;90.50;;;;;;5071634;28;20028;-63
2021/12/07 04:22:14;;;;;;;31.13;21.83;;;3.20;90.50;;;;;;5071522;28;20025;-63
2021/12/07 04:24:40;;;;;;;29.98;21.13;;;3.20;90.50;;;;;;5071713;28;20455;-63
2021/12/07 04:27:06;;;;;;;31.27;21.65;;;3.20;90.50;;;;;;5071395;28;20028;-63
2021/12/07 04:29:32;;;;;;;29.83;20.60;;;3.20;90.60;;;;;;5071642;28;20063;-63
2021/12/07 04:31:57;;;;;;;32.20;21.10;;;3.20;90.70;;;;;;5071347;28;20033;-63
2021/12/07 04:34:23;;;;;;;33.15;21.52;;;3.20;90.70;;;;;;5071972;28;20032;-63
2021/12/07 04:36:49;;;;;;;30.17;21.20;;;3.30;90.70;;;;;;5072005;28;20425;-64
2021/12/07 04:39:15;;;;;;;31.27;21.75;;;3.20;90.70;;;;;;5070811;28;20388;-63
2021/12/07 04:41:43;;;;;;;31.23;20.48;;;3.30;90.60;;;;;;5071549;28;20032;-63
2021/12/07 04:44:09;;;;;;;32.95;22.48;;;3.20;90.40;;;;;;5071253;28;20039;-63
2021/12/07 04:47:09;;;;;;;34.22;21.95;;;3.20;90.40;;;;;;5071655;28;20473;-63
2021/12/07 05:00:10;;;;;;;36.97;22.50;;;3.10;90.80;;;;;;5071508;28;20074;-63
2021/12/07 05:02:38;;;;;;;33.75;22.33;;;3.10;91.00;;;;;;5081839;28;20115;-63
2021/12/07 05:05:04;;;;;;;33.95;23.25;;;3.10;91.10;;;;;;5078883;28;20020;-63
2021/12/07 05:07:37;;;;;;;35.63;23.17;;;3.10;91.30;;;;;;5081864;28;20035;-63
2021/12/07 05:10:37;;;;;;;35.58;23.92;;;3.10;91.50;;;;;;5080969;28;20032;-63
2021/12/07 05:39:56;;;;;;;40.42;25.35;;;3.00;92.40;;;;;;5094841;28;20031;-63
2021/12/07 05:42:25;;;;;;;36.10;24.00;;;3.00;92.50;;;;;;5094231;28;20036;-63
2021/12/07 05:44:53;;;;;;;40.15;25.27;;;3.00;92.50;;;;;;5094970;28;20020;-62
2021/12/07 05:47:18;;;;;;;37.80;24.35;;;3.00;92.50;;;;;;5094403;28;20088;-63
2021/12/07 05:49:44;;;;;;;37.33;24.30;;;3.00;92.40;;;;;;5094780;28;20085;-63
2021/12/07 05:52:10;;;;;;;38.95;25.58;;;3.00;92.30;;;;;;5092018;28;20032;-64
2021/12/07 05:54:35;;;;;;;39.00;24.55;;;3.00;92.30;;;;;;5083942;28;20020;-63
2021/12/07 05:57:01;;;;;;;38.70;25.40;;;3.00;92.60;;;;;;5083819;28;20025;-64
2021/12/07 05:59:27;;;;;;;38.95;24.65;;;3.00;92.60;;;;;;5074229;28;20510;-64
2021/12/07 06:01:53;;;;;;;37.85;24.02;;;3.10;92.50;;;;;;5094266;28;20028;-63
2021/12/07 06:04:18;;;;;;;36.85;24.52;;;3.10;92.50;;;;;;5092679;28;20460;-64
2021/12/07 06:06:44;;;;;;;38.20;24.85;;;3.00;92.30;;;;;;5094534;28;20024;-65
2021/12/07 06:09:10;;;;;;;35.92;24.52;;;3.10;92.30;;;;;;5094031;28;20085;-64
2021/12/07 06:11:35;;;;;;;35.53;25.13;;;3.10;92.30;;;;;;5094258;28;20457;-64
2021/12/07 06:14:01;;;;;;;37.22;24.58;;;3.10;92.60;;;;;;5092672;28;20125;-67
2021/12/07 06:16:30;;;;;;;36.20;23.77;;;3.10;92.60;;;;;;5094014;28;20035;-63
2021/12/07 06:18:56;;;;;;;35.70;24.63;;;3.10;92.60;;;;;;5083884;28;20035;-64
2021/12/07 06:21:22;;;;;;;34.92;22.58;;;3.10;92.50;;;;;;5079843;28;20040;-64
2021/12/07 06:23:48;;;;;;;35.92;23.00;;;3.10;92.30;;;;;;5071423;28;20024;-64
2021/12/07 06:26:14;;;;;;;35.15;23.20;;;3.10;92.30;;;;;;5072394;28;20025;-63
2021/12/07 06:28:40;;;;;;;35.00;22.77;;;3.10;92.20;;;;;;5073184;28;20078;-64
2021/12/07 06:31:06;;;;;;;36.17;22.08;;;3.10;92.00;;;;;;5073148;28;20426;-63
2021/12/07 06:33:32;;;;;;;32.78;21.58;;;3.10;92.00;;;;;;5073731;28;20028;-63
2021/12/07 06:36:01;;;;;;;30.15;19.00;;;3.10;91.70;;;;;;5073778;28;20477;-63
2021/12/07 06:38:29;;;;;;;33.97;20.33;;;3.10;91.80;;;;;;5072962;28;20107;-63
2021/12/07 06:40:55;;;;;;;29.80;20.45;;;3.00;91.80;;;;;;5073615;28;20043;-63
2021/12/07 06:43:22;;;;;;;31.17;19.52;;;3.10;91.90;;;;;;5072678;28;20158;-63
2021/12/07 06:45:48;;;;;;;33.15;21.23;;;3.10;92.00;;;;;;5073733;28;20150;-63
2021/12/07 06:48:13;;;;;;;32.70;21.75;;;3.10;92.00;;;;;;5073082;28;20025;-63
2021/12/07 06:50:40;;;;;;;33.60;21.30;;;3.10;92.00;;;;;;5073350;28;20074;-63
2021/12/07 06:53:05;;;;;;;35.42;21.52;;;3.10;92.00;;;;;;5072708;28;20035;-63
2021/12/07 06:55:31;;;;;;;32.03;21.58;;;3.10;92.10;;;;;;5073364;28;20025;-63
2021/12/07 06:57:57;;;;;;;35.63;21.67;;;3.10;92.00;;;;;;5073251;28;20028;-63
2021/12/07 07:00:23;;;;;;;33.38;22.17;;;3.10;91.80;;;;;;5072715;28;20128;-63
2021/12/07 07:02:49;;;;;;;33.58;22.70;;;3.10;92.00;;;;;;5073113;28;20549;-63
2021/12/07 07:05:15;;;;;;;33.78;22.50;;;3.10;92.00;;;;;;5072895;28;20362;-62
2021/12/07 07:07:42;;;;;;;30.88;21.85;;;3.20;92.10;;;;;;5072975;28;20051;-63
2021/12/07 07:10:11;;;;;;;37.63;23.58;;;3.20;92.10;;;;;;5072710;28;20051;-64
2021/12/07 07:12:37;;;;;;;40.83;22.92;;;3.20;92.10;;;;;;5073225;28;20028;-64
2021/12/07 07:15:05;;;;;;;34.72;21.42;;;3.20;92.40;;;;;;5075198;28;20514;-64
2021/12/07 07:17:30;;;;;;;37.55;23.00;;;3.20;92.50;;;;;;5072193;28;20103;-63
2021/12/07 07:19:56;;;;;;;35.70;22.67;;;3.20;92.30;;;;;;5072894;28;20195;-63
2021/12/07 07:22:22;;;;;;;36.13;22.42;;;3.30;92.20;;;;;;5072131;28;20085;-63
2021/12/07 07:24:47;;;;;;;36.42;22.33;;;3.30;91.90;;;;;;5073145;28;20025;-64
2021/12/07 07:27:13;;;;;;;32.13;20.80;;;3.30;91.80;;;;;;5071870;28;20029;-63
2021/12/07 07:29:39;;;;;;;34.95;22.90;;;3.20;91.70;;;;;;5072535;28;20166;-63
2021/12/07 07:32:05;;;;;;;39.97;23.98;;;3.20;91.80;;;;;;5072226;28;20161;-62
2021/12/07 07:34:31;;;;;;;38.60;21.92;;;3.20;92.00;;;;;;5071426;28;20036;-63
2021/12/07 07:36:57;;;;;;;45.28;24.15;;;3.20;92.10;;;;;;5072251;28;20031;-63
2021/12/07 07:39:22;;;;;;;39.38;21.92;;;3.20;92.30;;;;;;5072213;28;20032;-64
2021/12/07 07:41:49;;;;;;;42.88;24.35;;;3.20;92.30;;;;;;5072819;28;20066;-63
2021/12/07 07:44:14;;;;;;;51.25;25.20;;;3.30;92.60;;;;;;5071548;28;20020;-63
2021/12/07 07:46:40;;;;;;;35.47;22.83;;;3.30;93.00;;;;;;5072300;28;20055;-63
2021/12/07 07:49:06;;;;;;;36.33;22.02;;;3.30;92.80;;;;;;5072313;28;20468;-62
2021/12/07 07:51:35;;;;;;;33.90;21.83;;;3.40;92.80;;;;;;5071298;28;20468;-63
2021/12/07 07:54:02;;;;;;;38.20;22.88;;;3.40;92.60;;;;;;5071026;28;20423;-63
2021/12/07 07:56:29;;;;;;;41.65;22.55;;;3.40;91.90;;;;;;5071667;28;20025;-63
2021/12/07 07:58:55;;;;;;;38.90;22.10;;;3.40;91.80;;;;;;5072132;28;20115;-63
2021/12/07 08:01:23;;;;;;;36.92;23.27;;;3.40;91.90;;;;;;5071490;28;20081;-63
2021/12/07 08:03:50;;;;;;;38.63;24.00;;;3.40;91.80;;;;;;5073274;28;20031;-64
2021/12/07 08:06:16;;;;;;;35.95;22.75;;;3.40;92.10;;;;;;5089049;28;20460;-63
2021/12/07 08:08:42;;;;;;;37.38;24.00;;;3.40;92.10;;;;;;5091274;28;20390;-63
2021/12/07 08:11:08;;;;;;;39.47;24.58;;;3.50;92.00;;;;;;5092003;28;20076;-63
2021/12/07 08:13:33;;;;;;;39.92;25.52;;;3.50;91.70;;;;;;5091643;28;20376;-63
2021/12/07 08:15:59;;;;;;;37.80;24.48;;;3.50;91.60;;;;;;5092164;28;20027;-63
2021/12/07 08:18:25;;;;;;;38.40;23.90;;;3.50;91.70;;;;;;5091428;28;20056;-63
2021/12/07 08:20:51;;;;;;;39.78;24.98;;;3.50;91.60;;;;;;5092449;28;20515;-63
2021/12/07 08:23:16;;;;;;;38.13;24.20;;;3.50;91.70;;;;;;5091613;28;20342;-63
2021/12/07 08:25:45;;;;;;;40.70;25.13;;;3.50;91.80;;;;;;5091830;28;20459;-63
2021/12/07 08:28:13;;;;;;;36.40;24.45;;;3.50;91.80;;;;;;5091709;28;20039;-63
2021/12/07 08:30:43;;;;;;;36.33;23.70;;;3.50;91.90;;;;;;5092008;28;20020;-63
2021/12/07 08:33:10;;;;;;;36.53;23.08;;;3.60;91.80;;;;;;5091848;28;20481;-63
2021/12/07 08:35:36;;;;;;;36.70;24.30;;;3.60;91.60;;;;;;5090162;28;20465;-63
2021/12/07 08:38:02;;;;;;;37.97;23.85;;;3.60;91.60;;;;;;5091957;28;20107;-63
2021/12/07 08:40:31;;;;;;;35.17;23.75;;;3.60;91.20;;;;;;5091043;28;20449;-64
2021/12/07 08:42:58;;;;;;;40.20;24.27;;;3.60;91.10;;;;;;5091980;28;20434;-63
2021/12/07 08:45:24;;;;;;;38.72;25.40;;;3.60;91.10;;;;;;5091057;28;20024;-64
2021/12/07 08:47:50;;;;;;;38.45;24.98;;;3.70;91.20;;;;;;5094534;28;20035;-63
2021/12/07 08:50:19;;;;;;;36.38;24.00;;;3.70;91.20;;;;;;5095150;28;20024;-64
2021/12/07 08:52:47;;;;;;;38.10;24.70;;;3.70;91.30;;;;;;5096143;28;20051;-63
2021/12/07 09:00:31;;;;;;;33.78;23.20;;;3.80;90.90;;;;;;5095361;28;20039;-63
2021/12/07 09:02:57;;;;;;;32.05;22.40;;;3.80;90.60;;;;;;5094774;28;20114;-63
2021/12/07 09:05:24;;;;;;;38.45;22.95;;;3.80;90.50;;;;;;5095067;28;20357;-63
2021/12/07 09:07:50;;;;;;;33.47;22.48;;;3.90;90.10;;;;;;5093049;28;20024;-63
2021/12/07 09:10:16;;;;;;;32.10;21.10;;;3.90;90.10;;;;;;5094120;28;20566;-63
2021/12/07 09:12:43;;;;;;;38.38;21.88;;;3.90;90.10;;;;;;5095676;28;20114;-63
2021/12/07 09:15:10;;;;;;;32.13;20.35;;;4.00;90.30;;;;;;5095487;28;20035;-63
2021/12/07 09:17:36;;;;;;;34.10;22.08;;;4.00;90.30;;;;;;5094603;28;20712;-63
2021/12/07 09:20:10;;;;;;;37.35;21.50;;;4.10;90.00;;;;;;5095243;28;20031;-64
2021/12/07 09:22:54;;;;;;;30.52;21.40;;;4.10;89.00;;;;;;5094828;28;20106;-62
2021/12/07 09:25:19;;;;;;;30.98;20.70;;;4.20;88.10;;;;;;5094743;28;20032;-62
2021/12/07 09:27:45;;;;;;;31.35;20.95;;;4.20;87.20;;;;;;5095160;28;20118;-63
2021/12/07 09:30:14;;;;;;;33.60;21.20;;;4.20;87.60;;;;;;5095254;28;20349;-62
2021/12/07 09:32:40;;;;;;;33.08;21.02;;;4.20;86.90;;;;;;5094561;28;20161;-63
2021/12/07 09:35:07;;;;;;;28.08;19.30;;;4.30;86.30;;;;;;5095108;28;20031;-63
2021/12/07 09:37:34;;;;;;;33.80;21.98;;;4.30;86.00;;;;;;5094446;28;20051;-63
2021/12/07 09:40:00;;;;;;;32.65;21.00;;;4.30;85.60;;;;;;5094981;28;20110;-63
2021/12/07 09:42:25;;;;;;;31.77;21.38;;;4.40;85.50;;;;;;5094178;28;20140;-63
2021/12/07 09:44:52;;;;;;;31.25;21.00;;;4.40;85.40;;;;;;5095089;28;20032;-63
2021/12/07 09:47:18;;;;;;;33.00;19.77;;;4.40;85.30;;;;;;5094620;28;20079;-63
2021/12/07 09:49:43;;;;;;;34.05;20.98;;;4.50;85.40;;;;;;5094544;28;20101;-63
2021/12/07 09:52:09;;;;;;;33.28;21.73;;;4.50;85.80;;;;;;5094857;28;20071;-63
2021/12/07 09:54:35;;;;;;;34.38;21.08;;;4.60;85.70;;;;;;5094200;28;20028;-63
2021/12/07 09:57:01;;;;;;;35.00;20.95;;;4.70;85.60;;;;;;5094365;28;20035;-63
2021/12/07 09:59:27;;;;;;;31.85;20.92;;;4.80;85.50;;;;;;5093511;28;20059;-63
2021/12/07 10:01:52;;;;;;;30.88;20.08;;;4.90;84.40;;;;;;5094480;28;20024;-63
2021/12/07 10:04:18;;;;;;;31.25;19.63;;;5.10;83.30;;;;;;5094475;28;20032;-63
2021/12/07 10:06:44;;;;;;;29.25;19.92;;;5.20;83.80;;;;;;5093816;28;20028;-63
2021/12/07 10:09:10;;;;;;;35.83;19.58;;;5.40;82.80;;;;;;5094174;28;20464;-63
2021/12/07 10:11:36;;;;;;;29.83;19.40;;;5.50;82.20;;;;;;5090188;28;20100;-63
2021/12/07 10:14:02;;;;;;;27.95;18.40;;;5.70;81.70;;;;;;5074170;28;20031;-63
2021/12/07 10:16:28;;;;;;;25.52;17.50;;;5.80;79.80;;;;;;5073235;28;20403;-63
2021/12/07 10:18:54;;;;;;;26.38;19.17;;;5.90;79.40;;;;;;5073848;28;20028;-62
2021/12/07 10:21:27;;;;;;;28.40;18.63;;;6.00;79.10;;;;;;5074027;28;20025;-63
2021/12/07 10:24:01;;;;;;;28.08;18.90;;;6.00;77.70;;;;;;5074058;28;20123;-63
2021/12/07 10:26:30;;;;;;;25.40;18.50;;;6.00;76.90;;;;;;5073143;28;20533;-64
2021/12/07 10:28:58;;;;;;;25.80;17.75;;;5.90;77.60;;;;;;5073856;28;20028;-64
2021/12/07 10:31:32;;;;;;;25.55;17.95;;;5.90;77.40;;;;;;5073193;28;20020;-64
2021/12/07 10:34:04;;;;;;;25.25;17.35;;;5.80;77.30;;;;;;5073906;28;20028;-63
2021/12/07 10:36:40;;;;;;;28.05;18.05;;;5.80;77.20;;;;;;5071965;28;20346;-62
2021/12/07 10:39:22;;;;;;;25.88;17.40;;;5.70;77.40;;;;;;5073788;28;20028;-63
2021/12/07 10:41:55;;;;;;;22.08;16.67;;;5.70;77.20;;;;;;5073337;28;20060;-63
2021/12/07 10:44:24;;;;;;;26.02;18.23;;;5.70;77.40;;;;;;5073758;28;20025;-63
2021/12/07 10:46:53;;;;;;;25.90;17.83;;;5.70;77.40;;;;;;5071706;28;20554;-63
2021/12/07 10:49:19;;;;;;;26.52;17.08;;;5.70;77.80;;;;;;5072313;28;20442;-63
2021/12/07 10:51:58;;;;;;;24.83;16.13;;;5.60;77.90;;;;;;5072783;28;20036;-63
2021/12/07 10:54:25;;;;;;;23.00;16.10;;;5.60;76.60;;;;;;5073129;28;20020;-65
2021/12/07 10:56:51;;;;;;;26.27;18.08;;;5.50;76.70;;;;;;5073437;28;20032;-62
2021/12/07 10:59:17;;;;;;;21.42;14.85;;;5.50;76.70;;;;;;5073343;28;20029;-62
2021/12/07 11:01:46;;;;;;;24.48;16.00;;;5.50;77.30;;;;;;5072416;28;20028;-62
2021/12/07 11:04:21;;;;;;;25.75;16.30;;;5.40;77.50;;;;;;5075613;28;20025;-62
2021/12/07 11:07:27;;;;;;;21.52;15.68;;;5.40;77.70;;;;;;5072452;28;20036;-63
2021/12/07 11:10:24;;;;;;;26.70;17.67;;;5.40;78.00;;;;;;4990970;28;20248;-63
2021/12/07 11:13:11;;;;;;;22.98;16.40;;;5.30;78.00;;;;;;4989426;28;20045;-63
2021/12/07 11:15:53;;;;;;;22.67;16.45;;;5.30;78.90;;;;;;4990801;28;20121;-62
2021/12/07 11:18:32;;;;;;;25.33;17.20;;;5.30;79.40;;;;;;4991157;28;20117;-63
2021/12/07 11:21:12;;;;;;;26.05;18.60;;;5.30;79.90;;;;;;4991087;28;20093;-62
2021/12/07 11:23:44;;;;;;;25.15;18.17;;;5.30;79.80;;;;;;4990577;28;20419;-63
2021/12/07 11:31:49;;;;;;;26.92;18.98;;;5.30;80.40;;;;;;4990473;28;19913;-64
2021/12/07 11:34:25;;;;;;;26.53;19.60;;;5.30;80.80;;;;;;4991008;28;20042;-63
2021/12/07 11:36:52;;;;;;;29.20;17.70;;;5.30;80.60;;;;;;4990335;28;20039;-63
2021/12/07 11:39:28;;;;;;;29.63;18.67;;;5.30;81.00;;;;;;4991058;28;20120;-63
2021/12/07 11:42:08;;;;;;;27.92;18.48;;;5.20;80.80;;;;;;5072525;28;20028;-62
2021/12/07 11:44:45;;;;;;;27.02;18.15;;;5.20;80.60;;;;;;5070520;28;20407;-64
2021/12/07 11:47:11;;;;;;;28.30;19.48;;;5.20;80.80;;;;;;5072389;28;20070;-64
2021/12/07 11:49:38;;;;;;;25.42;18.58;;;5.20;81.20;;;;;;5071737;28;20031;-64
2021/12/07 11:52:06;;;;;;;29.73;18.48;;;5.20;81.40;;;;;;5072451;28;20115;-64
2021/12/07 11:54:36;;;;;;;27.20;20.02;;;5.20;81.20;;;;;;5071709;28;20020;-64
2021/12/07 11:57:04;;;;;;;26.38;19.63;;;5.10;81.20;;;;;;5072532;28;20036;-63
2021/12/07 11:59:30;;;;;;;26.88;19.25;;;5.10;81.50;;;;;;5071621;28;20029;-64
2021/12/07 12:01:56;;;;;;;34.22;19.80;;;5.10;81.70;;;;;;5072158;28;20119;-63
2021/12/07 12:04:22;;;;;;;27.83;19.30;;;5.10;82.40;;;;;;5072092;28;20107;-63
2021/12/07 12:06:53;;;;;;;36.25;20.52;;;5.10;82.10;;;;;;5071466;28;20078;-63
2021/12/07 12:09:20;;;;;;;28.80;19.83;;;5.10;82.70;;;;;;5071894;28;20140;-63
2021/12/07 12:12:14;;;;;;;26.50;19.33;;;5.10;82.60;;;;;;5071533;28;20124;-63
2021/12/07 12:15:17;;;;;;;27.67;18.02;;;5.20;82.20;;;;;;5071551;28;20025;-63
2021/12/07 12:18:04;;;;;;;26.50;18.70;;;5.20;82.80;;;;;;5071119;28;20021;-63
2021/12/07 12:21:11;;;;;;;24.85;18.10;;;5.20;83.40;;;;;;5077867;28;20103;-63
2021/12/07 12:23:49;;;;;;;28.05;18.42;;;5.20;83.90;;;;;;5091911;28;20094;-63
2021/12/07 12:26:22;;;;;;;25.77;18.30;;;5.10;85.30;;;;;;5092015;28;20020;-62
2021/12/07 12:28:49;;;;;;;27.77;19.38;;;5.10;86.00;;;;;;5090262;28;20443;-63
2021/12/07 12:31:17;;;;;;;26.20;19.25;;;5.10;86.80;;;;;;5090624;28;20088;-63
2021/12/07 12:33:53;;;;;;;28.67;19.92;;;5.10;88.00;;;;;;5091210;28;20028;-62
2021/12/07 12:36:21;;;;;;;31.75;21.75;;;5.10;88.90;;;;;;5091999;28;20039;-63
2021/12/07 12:38:59;;;;;;;30.05;22.30;;;5.00;89.80;;;;;;5091220;28;20028;-62
2021/12/07 12:41:25;;;;;;;31.05;21.80;;;5.00;90.30;;;;;;5091838;28;20149;-62
2021/12/07 12:43:58;;;;;;;29.35;21.92;;;5.10;90.60;;;;;;5091235;28;20024;-63
2021/12/07 12:46:27;;;;;;;32.20;23.02;;;5.00;90.70;;;;;;5091858;28;20127;-63
2021/12/07 12:48:58;;;;;;;30.83;22.45;;;4.90;91.10;;;;;;5091375;28;20473;-63
2021/12/07 12:51:30;;;;;;;32.20;22.73;;;4.90;91.50;;;;;;5091909;28;20020;-63
2021/12/07 12:53:56;;;;;;;;;;;4.90;91.70;;;;;;5091732;28;20032;-64
2021/12/07 12:56:36;;;;;;;32.17;22.85;;;4.80;92.00;;;;;;5091583;28;19904;-63
2021/12/07 12:59:07;;;;;;;32.65;22.05;;;4.90;92.30;;;;;;5091858;28;20059;-62
2021/12/07 13:01:35;;;;;;;37.28;22.92;;;4.90;92.70;;;;;;5091797;28;20127;-63
2021/12/07 13:04:13;;;;;;;35.00;23.33;;;4.80;92.70;;;;;;5091559;28;20456;-63
2021/12/07 13:06:54;;;;;;;33.28;23.27;;;4.90;93.00;;;;;;5090999;28;20033;-63
2021/12/07 13:09:19;;;;;;;34.08;22.27;;;4.90;93.20;;;;;;5092063;28;20043;-62
2021/12/07 13:12:23;;;;;;;32.03;22.65;;;4.90;93.30;;;;;;5089671;28;20029;-63
2021/12/07 13:14:49;;;;;;;31.52;20.92;;;4.90;93.40;;;;;;5034289;28;20044;-63
2021/12/07 13:17:23;;;;;;;27.73;20.60;;;4.90;93.70;;;;;;5071182;28;20358;-63
2021/12/07 13:20:11;;;;;;;27.13;20.05;;;4.80;93.80;;;;;;5070738;28;20028;-63
2021/12/07 13:22:43;;;;;;;27.08;19.88;;;4.80;93.80;;;;;;5070945;28;20048;-66
2021/12/07 13:28:04;;;;;;;26.95;18.75;;;4.80;94.10;;;;;;5070446;28;20035;-64
2021/12/07 13:30:47;;;;;;;26.48;19.27;;;4.80;94.00;;;;;;5071252;28;20111;-63
2021/12/07 13:33:49;;;;;;;24.67;17.45;;;4.80;94.20;;;;;;5072863;28;20039;-63
2021/12/07 13:36:52;;;;;;;23.27;17.45;;;4.80;94.40;;;;;;5074383;28;20127;-63
2021/12/07 13:39:20;;;;;;;23.05;16.15;;;4.80;94.20;;;;;;5074684;28;20550;-63
2021/12/07 13:42:03;;;;;;;22.42;15.55;;;4.70;94.10;;;;;;5074106;28;20044;-63
2021/12/07 13:44:32;;;;;;;22.33;15.23;;;4.70;94.30;;;;;;5074852;28;20044;-63
2021/12/07 13:47:05;;;;;;;27.70;16.40;;;4.70;94.60;;;;;;5074034;28;20052;-63
2021/12/07 13:49:33;;;;;;;21.17;14.63;;;4.70;94.70;;;;;;5074655;28;20051;-63
2021/12/07 13:52:00;;;;;;;17.45;13.75;;;4.70;94.90;;;;;;5073980;28;20045;-63
2021/12/07 13:54:26;;;;;;;21.35;15.02;;;4.70;95.00;;;;;;5074643;28;20028;-63
2021/12/07 13:56:54;;;;;;;18.30;13.50;;;4.70;95.00;;;;;;5073845;28;20058;-63
2021/12/07 13:59:26;;;;;;;17.90;12.70;;;4.70;95.10;;;;;;5074409;28;20408;-63
2021/12/07 14:01:56;;;;;;;18.80;13.82;;;4.70;95.00;;;;;;5073787;28;20090;-64
2021/12/07 14:04:29;;;;;;;16.40;12.40;;;4.70;95.10;;;;;;5074109;28;20149;-63
2021/12/07 14:06:55;;;;;;;16.23;12.55;;;4.70;95.20;;;;;;5073258;28;20481;-64
2021/12/07 14:09:22;;;;;;;17.92;11.63;;;4.70;95.40;;;;;;5074071;28;20341;-63
2021/12/07 14:11:53;;;;;;;16.15;11.93;;;4.70;95.50;;;;;;5073883;28;20055;-63
2021/12/07 14:14:20;;;;;;;15.05;11.23;;;4.70;95.50;;;;;;5074219;28;20027;-63
2021/12/07 14:16:46;;;;;;;15.90;12.45;;;4.70;95.60;;;;;;5073485;28;20535;-63
2021/12/07 14:19:12;;;;;;;16.35;12.15;;;4.70;95.60;;;;;;5073746;28;20062;-63
2021/12/07 14:21:38;;;;;;;16.55;11.35;;;4.70;95.70;;;;;;5074059;28;20028;-63
2021/12/07 14:24:09;;;;;;;15.40;11.73;;;4.70;96.00;;;;;;5073083;28;20025;-63
2021/12/07 14:26:37;;;;;;;17.40;11.80;;;4.70;96.10;;;;;;5073875;28;20024;-63
2021/12/07 14:29:14;;;;;;;16.67;11.98;;;4.70;96.00;;;;;;5075964;28;20036;-64
2021/12/07 14:31:59;;;;;;;18.80;11.90;;;4.70;96.30;;;;;;5072683;28;20025;-63
2021/12/07 14:34:32;;;;;;;14.60;11.13;;;4.70;96.40;;;;;;5073925;28;20027;-62
2021/12/07 14:37:05;;;;;;;15.00;10.93;;;4.70;96.50;;;;;;5072926;28;20089;-62
2021/12/07 14:39:36;;;;;;;14.85;10.48;;;4.70;96.60;;;;;;5073746;28;20039;-63
2021/12/07 14:42:05;;;;;;;;;;;4.70;96.50;;;;;;5073073;28;20435;-63
2021/12/07 14:44:34;;;;;;;15.75;8.80;;;4.60;96.30;;;;;;5072597;28;19916;-64
2021/12/07 14:47:07;;;;;;;11.60;9.07;;;4.60;96.30;;;;;;5073074;28;20093;-63
2021/12/07 14:49:42;;;;;;;14.23;9.35;;;4.70;96.20;;;;;;5073558;28;20124;-62
2021/12/07 14:52:09;;;;;;;12.18;8.75;;;4.70;96.20;;;;;;5072819;28;20043;-64